Time;durP1;ratioP1;P1;durP2;ratioP2;P2;SDS_P1;SDS_P2;PMS_P1;PMS_P2;Temp;Humidity;BMP_temperature;BMP_pressure;BME280_temperature;BME280_humidity;BME280_pressure;Samples;Min_cycle;Max_cycle;Signal;HPM_P1;HPM_P2
2021/09/25 00:01:35;;;;;;;15.32;11.93;;;12.70;99.90;;;;;;5053377;28;20103;-76
2021/09/25 00:04:02;;;;;;;17.27;12.38;;;12.70;99.90;;;;;;5054421;28;20033;-76
2021/09/25 00:06:28;;;;;;;16.52;13.15;;;12.70;99.90;;;;;;5052195;28;20021;-76
2021/09/25 00:08:54;;;;;;;34.67;20.35;;;12.60;99.90;;;;;;5054756;28;20128;-75
2021/09/25 00:11:20;;;;;;;43.15;23.92;;;12.60;99.90;;;;;;5054392;28;20435;-76
2021/09/25 00:13:46;;;;;;;25.13;17.45;;;12.60;99.90;;;;;;5055355;28;20052;-75
2021/09/25 00:16:11;;;;;;;40.03;21.80;;;12.50;99.90;;;;;;5053859;28;20078;-75
2021/09/25 00:18:37;;;;;;;40.65;22.33;;;12.50;99.90;;;;;;5054650;28;20020;-75
2021/09/25 00:21:03;;;;;;;38.55;21.45;;;12.50;99.90;;;;;;5054314;28;20492;-75
2021/09/25 00:23:30;;;;;;;38.58;19.85;;;12.40;99.90;;;;;;5054126;28;20025;-76
2021/09/25 00:25:55;;;;;;;37.63;21.98;;;12.40;99.90;;;;;;5055276;28;20395;-75
2021/09/25 00:28:21;;;;;;;37.47;21.63;;;12.40;99.90;;;;;;5054299;28;20100;-74
2021/09/25 00:30:46;;;;;;;32.42;19.15;;;12.40;99.90;;;;;;5055032;28;20025;-75
2021/09/25 00:33:12;;;;;;;30.83;17.80;;;12.30;99.90;;;;;;5054508;28;20021;-77
2021/09/25 00:35:38;;;;;;;25.60;15.98;;;12.20;99.90;;;;;;5055380;28;20039;-77
2021/09/25 00:38:06;;;;;;;26.02;16.73;;;12.20;99.90;;;;;;5057416;28;20030;-74
2021/09/25 00:40:34;;;;;;;20.77;15.35;;;12.20;99.90;;;;;;5055164;28;20029;-77
2021/09/25 00:43:00;;;;;;;26.77;14.80;;;12.20;99.90;;;;;;5054164;28;20036;-77
2021/09/25 00:45:26;;;;;;;20.00;15.27;;;12.20;99.90;;;;;;5036550;28;20029;-76
2021/09/25 00:47:52;;;;;;;16.75;14.40;;;12.10;99.90;;;;;;5054033;28;20496;-75
2021/09/25 00:50:19;;;;;;;17.67;14.57;;;12.10;99.90;;;;;;5054076;28;20053;-75
2021/09/25 00:52:45;;;;;;;15.80;13.15;;;12.10;99.90;;;;;;5054723;28;20107;-76
2021/09/25 00:55:12;;;;;;;15.32;13.05;;;12.10;99.90;;;;;;5054288;28;20568;-75
2021/09/25 00:57:39;;;;;;;17.58;12.52;;;12.10;99.90;;;;;;5052904;28;20029;-75
2021/09/25 01:00:06;;;;;;;22.08;16.33;;;12.00;99.90;;;;;;5055561;28;20098;-74
2021/09/25 01:02:36;;;;;;;16.88;13.55;;;12.00;99.90;;;;;;5054761;28;20021;-75
2021/09/25 01:05:03;;;;;;;21.23;16.13;;;12.00;99.90;;;;;;5053652;28;20615;-77
2021/09/25 01:07:29;;;;;;;15.63;12.95;;;12.00;99.90;;;;;;5054889;28;20611;-75
2021/09/25 01:09:55;;;;;;;17.70;15.43;;;11.90;99.90;;;;;;5053561;28;20029;-75
2021/09/25 01:12:21;;;;;;;15.82;13.77;;;12.00;99.90;;;;;;5053649;28;20028;-74
2021/09/25 01:14:47;;;;;;;19.10;12.73;;;12.00;99.90;;;;;;5053639;28;20408;-75
2021/09/25 01:17:13;;;;;;;17.67;13.48;;;11.90;99.90;;;;;;5052665;28;20024;-75
2021/09/25 01:19:41;;;;;;;17.27;13.70;;;11.90;99.90;;;;;;5053053;28;20405;-75
2021/09/25 01:22:07;;;;;;;16.08;12.25;;;11.90;99.90;;;;;;5051640;28;20032;-75
2021/09/25 01:24:33;;;;;;;15.95;13.20;;;11.80;99.90;;;;;;5053257;28;20497;-76
2021/09/25 01:26:59;;;;;;;20.27;15.07;;;11.80;99.90;;;;;;5053300;28;20031;-76
2021/09/25 01:29:26;;;;;;;19.27;15.07;;;11.80;99.90;;;;;;5052795;28;20451;-76
2021/09/25 01:31:52;;;;;;;17.45;14.38;;;11.90;99.90;;;;;;5052615;28;20037;-75
2021/09/25 01:34:18;;;;;;;17.13;13.05;;;11.80;99.90;;;;;;5053053;28;20025;-74
2021/09/25 01:36:44;;;;;;;14.25;12.75;;;11.80;99.90;;;;;;5053276;28;20041;-74
2021/09/25 01:39:09;;;;;;;18.73;13.80;;;11.80;99.90;;;;;;5053207;28;20024;-75
2021/09/25 01:41:35;;;;;;;16.98;12.95;;;11.80;99.90;;;;;;5053753;28;20505;-74
2021/09/25 01:44:01;;;;;;;13.45;11.38;;;11.80;99.90;;;;;;5053379;28;20037;-74
2021/09/25 01:46:26;;;;;;;12.85;10.52;;;11.80;99.90;;;;;;5056685;28;20017;-76
2021/09/25 01:48:52;;;;;;;15.38;11.07;;;11.90;99.90;;;;;;5068273;28;20032;-75
2021/09/25 01:51:17;;;;;;;11.93;10.70;;;11.90;99.90;;;;;;5070544;28;20029;-74
2021/09/25 01:53:43;;;;;;;12.55;10.65;;;12.00;99.90;;;;;;5074292;28;20033;-74
2021/09/25 01:56:12;;;;;;;14.77;10.23;;;12.00;99.90;;;;;;5071074;28;20024;-75
2021/09/25 01:58:38;;;;;;;11.48;10.30;;;11.90;99.90;;;;;;5056365;28;20025;-75
2021/09/25 02:01:05;;;;;;;15.23;11.32;;;11.90;99.90;;;;;;5054162;28;20020;-75
2021/09/25 02:03:35;;;;;;;15.25;11.07;;;11.80;99.90;;;;;;5053213;28;20377;-75
2021/09/25 02:06:05;;;;;;;14.93;11.18;;;11.80;99.90;;;;;;5051922;28;20432;-75
2021/09/25 02:08:31;;;;;;;14.32;11.10;;;11.80;99.90;;;;;;5052561;28;20045;-76
2021/09/25 02:10:57;;;;;;;17.30;11.20;;;11.80;99.90;;;;;;5052558;28;20274;-76
2021/09/25 02:13:23;;;;;;;14.80;11.20;;;11.90;99.90;;;;;;5052045;28;20029;-76
2021/09/25 02:15:48;;;;;;;12.82;11.38;;;12.10;99.90;;;;;;5050819;28;20493;-76
2021/09/25 02:18:14;;;;;;;12.15;10.85;;;12.00;99.90;;;;;;5051886;28;20108;-76
2021/09/25 02:20:39;;;;;;;13.52;11.88;;;11.90;99.90;;;;;;5051775;28;20068;-75
2021/09/25 02:23:05;;;;;;;11.25;10.15;;;11.80;99.90;;;;;;5050375;28;20394;-76
2021/09/25 02:25:31;;;;;;;13.25;10.70;;;11.70;99.90;;;;;;5051380;28;20028;-76
2021/09/25 02:27:56;;;;;;;15.70;11.10;;;11.70;99.90;;;;;;5050789;28;20025;-76
2021/09/25 02:30:22;;;;;;;11.57;10.43;;;11.70;99.90;;;;;;5054158;28;20025;-75
2021/09/25 02:32:48;;;;;;;11.70;10.32;;;11.70;99.90;;;;;;5055407;28;20021;-76
2021/09/25 02:35:17;;;;;;;11.45;10.25;;;11.60;99.90;;;;;;5054414;28;20041;-74
2021/09/25 02:37:42;;;;;;;11.18;9.98;;;11.60;99.90;;;;;;5055532;28;20032;-77
2021/09/25 02:40:09;;;;;;;11.57;10.32;;;11.70;99.90;;;;;;5055412;28;20029;-75
2021/09/25 02:42:35;;;;;;;12.20;10.88;;;11.60;99.90;;;;;;5055113;28;20123;-74
2021/09/25 02:45:01;;;;;;;11.70;10.43;;;11.60;99.90;;;;;;5055072;28;20056;-74
2021/09/25 02:47:26;;;;;;;14.60;10.68;;;11.60;99.90;;;;;;5054993;28;20021;-74
2021/09/25 02:49:52;;;;;;;14.57;11.60;;;11.50;99.90;;;;;;5055137;28;20021;-74
2021/09/25 02:52:18;;;;;;;12.20;10.90;;;11.50;99.90;;;;;;5055310;28;20029;-74
2021/09/25 02:54:43;;;;;;;12.30;10.43;;;11.60;99.90;;;;;;5055160;28;20100;-75
2021/09/25 02:57:09;;;;;;;10.98;9.73;;;11.50;99.90;;;;;;5054836;28;20485;-75
2021/09/25 02:59:34;;;;;;;11.65;10.35;;;11.50;99.90;;;;;;5057571;28;20104;-75
2021/09/25 03:02:00;;;;;;;11.80;10.52;;;11.50;99.90;;;;;;5055518;28;20017;-73
2021/09/25 03:04:25;;;;;;;13.80;10.68;;;11.50;99.90;;;;;;5078834;22;20048;-74
2021/09/25 03:06:51;;;;;;;11.10;10.00;;;11.40;99.90;;;;;;5057583;28;20033;-73
2021/09/25 03:09:17;;;;;;;12.15;10.02;;;11.40;99.90;;;;;;5055535;28;20017;-73
2021/09/25 03:11:42;;;;;;;15.25;11.15;;;11.40;99.90;;;;;;5055446;28;20033;-73
2021/09/25 03:14:08;;;;;;;12.02;10.80;;;11.30;99.90;;;;;;5055054;28;20067;-74
2021/09/25 03:16:33;;;;;;;11.65;10.40;;;11.30;99.90;;;;;;5058954;28;20484;-73
2021/09/25 03:18:59;;;;;;;15.50;11.95;;;11.20;99.90;;;;;;5060470;28;20025;-72
2021/09/25 03:21:25;;;;;;;13.75;11.32;;;11.20;99.90;;;;;;5058260;28;20036;-73
2021/09/25 03:23:50;;;;;;;15.23;11.60;;;11.20;99.90;;;;;;5055184;28;20467;-73
2021/09/25 03:26:16;;;;;;;14.98;12.15;;;11.20;99.90;;;;;;5054345;28;20078;-73
2021/09/25 03:28:42;;;;;;;13.02;11.68;;;11.20;99.90;;;;;;5054286;28;20358;-72
2021/09/25 03:31:08;;;;;;;14.60;12.40;;;11.10;99.90;;;;;;5054657;28;20385;-73
2021/09/25 03:33:33;;;;;;;13.15;10.23;;;11.00;99.90;;;;;;5054614;28;20029;-73
2021/09/25 03:35:59;;;;;;;13.88;11.02;;;11.00;99.90;;;;;;5054187;28;20033;-73
2021/09/25 03:38:26;;;;;;;12.48;11.18;;;10.90;99.90;;;;;;5054226;28;20021;-73
2021/09/25 03:40:51;;;;;;;13.57;9.95;;;10.90;99.90;;;;;;5052045;28;20028;-73
2021/09/25 03:43:18;;;;;;;10.05;9.05;;;10.90;99.90;;;;;;5053915;28;20671;-73
2021/09/25 03:45:44;;;;;;;12.82;10.23;;;10.90;99.90;;;;;;5054131;28;20029;-74
2021/09/25 03:48:09;;;;;;;9.82;8.82;;;10.90;99.90;;;;;;5053937;28;20025;-72
2021/09/25 03:50:35;;;;;;;11.55;9.88;;;11.00;99.90;;;;;;5054019;28;20017;-74
2021/09/25 03:53:02;;;;;;;12.80;10.50;;;11.00;99.90;;;;;;5053814;28;20060;-73
2021/09/25 03:55:28;;;;;;;14.55;10.43;;;11.00;99.90;;;;;;5056481;28;20025;-72
2021/09/25 03:57:55;;;;;;;13.77;9.95;;;11.00;99.90;;;;;;5056608;28;20392;-73
2021/09/25 04:00:22;;;;;;;12.93;10.15;;;11.00;99.90;;;;;;5057337;28;20024;-73
2021/09/25 04:02:50;;;;;;;12.18;10.45;;;10.90;99.90;;;;;;5057063;28;20025;-72
2021/09/25 04:05:16;;;;;;;12.75;10.90;;;10.90;99.90;;;;;;5056943;28;20033;-72
2021/09/25 04:07:41;;;;;;;10.15;9.15;;;10.90;99.90;;;;;;5053745;28;20493;-73
2021/09/25 04:10:07;;;;;;;13.00;10.18;;;10.80;99.90;;;;;;5053531;28;20024;-73
2021/09/25 04:12:33;;;;;;;13.27;9.98;;;10.80;99.90;;;;;;5053774;28;20071;-73
2021/09/25 04:14:59;;;;;;;10.13;9.13;;;10.90;99.90;;;;;;5053737;28;20057;-73
2021/09/25 04:17:25;;;;;;;15.15;9.93;;;10.80;99.90;;;;;;5052935;28;20025;-74
2021/09/25 04:19:50;;;;;;;10.60;9.50;;;10.70;99.90;;;;;;5052085;28;20029;-73
2021/09/25 04:22:16;;;;;;;14.63;10.43;;;10.70;99.90;;;;;;5053355;28;20037;-73
2021/09/25 04:24:42;;;;;;;14.35;9.90;;;10.70;99.90;;;;;;5053360;28;20021;-73
2021/09/25 04:27:10;;;;;;;12.15;9.32;;;10.70;99.90;;;;;;5054407;28;20025;-74
2021/09/25 04:29:36;;;;;;;11.43;10.25;;;10.60;99.90;;;;;;5065773;28;20040;-73
2021/09/25 04:32:01;;;;;;;12.07;9.43;;;10.70;99.90;;;;;;5052375;28;20029;-74
2021/09/25 04:34:28;;;;;;;12.00;10.85;;;10.70;99.90;;;;;;5051907;28;20023;-74
2021/09/25 04:36:53;;;;;;;11.48;10.18;;;10.60;99.90;;;;;;5053168;28;20025;-73
2021/09/25 04:39:19;;;;;;;12.27;10.93;;;10.60;99.90;;;;;;5053032;28;20017;-73
2021/09/25 04:41:45;;;;;;;14.80;11.02;;;10.60;99.90;;;;;;5051792;28;20029;-73
2021/09/25 04:44:14;;;;;;;12.80;11.38;;;10.60;99.90;;;;;;5052718;28;20067;-73
2021/09/25 04:46:40;;;;;;;13.00;10.05;;;10.60;99.90;;;;;;5052819;28;20032;-73
2021/09/25 04:49:06;;;;;;;11.77;10.63;;;10.60;99.90;;;;;;5051482;28;20024;-74
2021/09/25 04:51:32;;;;;;;15.68;10.45;;;10.60;99.90;;;;;;5052789;28;20028;-74
2021/09/25 04:53:58;;;;;;;11.45;10.18;;;10.60;99.90;;;;;;5053298;28;20021;-73
2021/09/25 04:56:24;;;;;;;13.38;10.27;;;10.60;99.90;;;;;;5051974;28;20028;-73
2021/09/25 04:58:49;;;;;;;14.02;9.57;;;10.50;99.90;;;;;;5052709;28;20031;-73
2021/09/25 05:01:15;;;;;;;17.85;10.38;;;10.50;99.90;;;;;;5052930;28;20025;-73
2021/09/25 05:03:40;;;;;;;15.63;9.02;;;10.50;99.90;;;;;;5052662;28;20033;-74
2021/09/25 05:06:06;;;;;;;11.98;9.70;;;10.50;99.90;;;;;;5053001;28;20031;-73
2021/09/25 05:08:32;;;;;;;12.27;9.65;;;10.50;99.90;;;;;;5058473;28;20052;-73
2021/09/25 05:10:57;;;;;;;15.20;9.40;;;10.50;99.90;;;;;;5064003;28;20021;-73
2021/09/25 05:13:23;;;;;;;11.73;9.10;;;10.40;99.90;;;;;;5067734;28;20081;-72
2021/09/25 05:15:49;;;;;;;21.83;8.70;;;10.50;99.90;;;;;;5063337;28;20025;-73
2021/09/25 05:18:15;;;;;;;9.50;8.15;;;10.60;99.90;;;;;;5057961;28;20503;-74
2021/09/25 05:20:40;;;;;;;8.98;8.07;;;10.70;99.90;;;;;;5052531;28;20025;-74
2021/09/25 05:23:06;;;;;;;10.63;9.50;;;10.80;99.90;;;;;;5051181;28;20025;-74
2021/09/25 05:25:31;;;;;;;14.73;10.52;;;10.70;99.90;;;;;;5051609;28;20117;-73
2021/09/25 05:27:57;;;;;;;12.15;9.18;;;10.60;99.90;;;;;;5052535;28;20053;-73
2021/09/25 05:30:23;;;;;;;10.75;8.07;;;10.60;99.90;;;;;;5052802;28;20025;-74
2021/09/25 05:32:48;;;;;;;15.25;9.93;;;10.60;99.90;;;;;;5050994;28;20025;-73
2021/09/25 05:35:14;;;;;;;10.57;8.30;;;10.70;99.90;;;;;;5051336;28;20048;-74
2021/09/25 05:37:40;;;;;;;12.43;9.13;;;10.70;99.90;;;;;;5053246;28;20079;-73
2021/09/25 05:40:07;;;;;;;10.05;9.02;;;10.70;99.90;;;;;;5052325;28;20037;-74
2021/09/25 05:42:32;;;;;;;9.32;7.82;;;10.70;99.90;;;;;;5053270;28;20108;-75
2021/09/25 05:44:58;;;;;;;10.70;8.35;;;10.80;99.90;;;;;;5052459;28;20053;-74
2021/09/25 05:47:25;;;;;;;9.75;8.63;;;10.80;99.90;;;;;;5052785;28;20385;-74
2021/09/25 05:49:51;;;;;;;11.77;8.80;;;10.90;99.90;;;;;;5052369;28;20524;-73
2021/09/25 05:52:18;;;;;;;10.55;9.00;;;11.00;99.90;;;;;;5052419;28;20092;-76
2021/09/25 05:54:44;;;;;;;12.07;9.13;;;11.20;99.90;;;;;;5052129;28;20041;-74
2021/09/25 05:57:10;;;;;;;11.57;8.63;;;11.30;99.90;;;;;;5052574;28;20445;-74
2021/09/25 05:59:36;;;;;;;9.95;8.75;;;11.30;99.90;;;;;;5052765;28;20100;-74
2021/09/25 06:02:03;;;;;;;10.88;9.80;;;11.30;99.90;;;;;;5053065;28;20385;-73
2021/09/25 06:04:29;;;;;;;10.00;8.90;;;11.40;99.90;;;;;;5057120;28;20025;-73
2021/09/25 06:06:56;;;;;;;13.23;8.93;;;11.40;99.90;;;;;;5057167;28;20025;-74
2021/09/25 06:09:22;;;;;;;12.27;8.50;;;11.50;99.90;;;;;;5057612;28;20503;-73
2021/09/25 06:11:51;;;;;;;9.55;8.52;;;11.50;99.90;;;;;;5057516;28;20024;-75
2021/09/25 06:14:18;;;;;;;9.65;8.65;;;11.60;99.90;;;;;;5055323;28;20033;-74
2021/09/25 06:16:43;;;;;;;13.23;8.25;;;11.70;99.90;;;;;;5056698;28;20491;-74
2021/09/25 06:19:09;;;;;;;8.48;7.68;;;11.80;99.90;;;;;;5057083;28;20036;-73
2021/09/25 06:21:34;;;;;;;11.55;8.80;;;11.90;99.90;;;;;;5059907;28;20389;-72
2021/09/25 06:24:00;;;;;;;10.57;9.50;;;12.00;99.90;;;;;;5060104;28;20074;-73
2021/09/25 06:26:26;;;;;;;10.10;9.13;;;12.10;99.90;;;;;;5057574;28;20044;-73
2021/09/25 06:28:51;;;;;;;10.60;8.13;;;12.10;99.90;;;;;;5056216;28;20036;-74
2021/09/25 06:31:20;;;;;;;9.52;7.35;;;12.20;99.90;;;;;;5055558;28;20021;-73
2021/09/25 06:33:45;;;;;;;10.40;8.15;;;12.30;99.90;;;;;;5055770;28;20048;-74
2021/09/25 06:36:12;;;;;;;9.27;8.38;;;12.30;99.90;;;;;;5056666;28;20029;-73
2021/09/25 06:38:38;;;;;;;13.45;8.50;;;12.30;99.90;;;;;;5056388;28;20028;-73
2021/09/25 06:41:04;;;;;;;10.45;8.57;;;12.40;99.90;;;;;;5059631;28;20070;-74
2021/09/25 06:43:30;;;;;;;9.80;8.35;;;12.40;99.90;;;;;;5059529;28;20029;-73
2021/09/25 06:45:55;;;;;;;9.50;8.48;;;12.50;99.90;;;;;;5064859;28;20051;-73
2021/09/25 06:48:21;;;;;;;9.82;8.82;;;12.70;99.90;;;;;;5074979;28;20461;-74
2021/09/25 06:50:47;;;;;;;9.40;8.52;;;12.70;99.90;;;;;;5059257;28;20029;-75
2021/09/25 06:53:12;;;;;;;9.90;8.77;;;12.70;99.90;;;;;;5056792;28;20021;-73
2021/09/25 06:55:38;;;;;;;14.48;8.63;;;12.70;99.90;;;;;;5056048;28;20515;-73
2021/09/25 06:58:05;;;;;;;10.15;8.57;;;12.70;99.90;;;;;;5054438;28;20504;-74
2021/09/25 07:00:31;;;;;;;9.10;8.20;;;13.00;99.90;;;;;;5056030;28;20430;-74
2021/09/25 07:02:57;;;;;;;8.98;7.85;;;13.20;99.90;;;;;;5055491;28;20583;-73
2021/09/25 07:05:22;;;;;;;8.77;7.88;;;13.30;99.90;;;;;;5055534;28;20119;-73
2021/09/25 07:07:49;;;;;;;8.73;7.82;;;13.30;99.90;;;;;;5055717;28;20100;-73
2021/09/25 07:10:16;;;;;;;9.90;8.95;;;13.30;99.90;;;;;;5057484;28;20032;-74
2021/09/25 07:12:42;;;;;;;9.63;8.02;;;13.30;99.90;;;;;;5056678;28;20029;-75
2021/09/25 07:15:08;;;;;;;8.45;7.53;;;13.40;99.90;;;;;;5055499;28;20057;-75
2021/09/25 07:17:34;;;;;;;10.57;8.15;;;13.50;99.90;;;;;;5065011;28;20032;-73
2021/09/25 07:19:59;;;;;;;9.95;8.95;;;13.70;99.90;;;;;;5072392;28;20469;-73
2021/09/25 07:22:25;;;;;;;10.07;7.63;;;13.90;99.90;;;;;;5073437;28;20043;-73
2021/09/25 07:24:54;;;;;;;9.43;8.02;;;14.00;99.90;;;;;;5064880;28;20369;-74
2021/09/25 07:27:24;;;;;;;8.73;7.82;;;14.10;99.90;;;;;;5056795;28;20029;-73
2021/09/25 07:29:50;;;;;;;11.80;7.18;;;14.10;99.90;;;;;;5057143;28;20025;-74
2021/09/25 07:32:17;;;;;;;9.20;8.30;;;14.30;99.90;;;;;;5054215;28;20496;-73
2021/09/25 07:34:43;;;;;;;8.70;7.72;;;14.30;99.90;;;;;;5055761;28;20021;-74
2021/09/25 07:37:09;;;;;;;8.70;7.82;;;14.40;99.90;;;;;;5055256;28;20425;-74
2021/09/25 07:39:36;;;;;;;9.85;7.80;;;14.40;99.90;;;;;;5054913;28;20503;-73
2021/09/25 07:42:02;;;;;;;10.43;8.57;;;14.50;99.90;;;;;;5055001;28;20477;-74
2021/09/25 07:44:27;;;;;;;8.93;8.02;;;14.50;99.90;;;;;;5055495;28;20029;-74
2021/09/25 07:46:53;;;;;;;8.57;7.70;;;14.60;99.90;;;;;;5056073;28;20032;-74
2021/09/25 07:49:19;;;;;;;9.65;8.00;;;14.70;99.90;;;;;;5056026;28;20032;-73
2021/09/25 07:51:44;;;;;;;8.65;7.85;;;14.70;99.90;;;;;;5057551;28;20496;-73
2021/09/25 07:54:10;;;;;;;9.48;7.68;;;14.70;99.90;;;;;;5056128;28;20036;-74
2021/09/25 07:56:36;;;;;;;8.75;7.22;;;14.80;99.90;;;;;;5056594;28;20078;-73
2021/09/25 07:59:02;;;;;;;8.32;7.63;;;15.00;99.90;;;;;;5056543;28;20048;-74
2021/09/25 08:01:27;;;;;;;9.48;8.18;;;15.20;99.90;;;;;;5055769;28;20060;-73
2021/09/25 08:03:53;;;;;;;11.13;7.25;;;15.10;99.90;;;;;;5055641;28;20032;-72
2021/09/25 08:06:19;;;;;;;8.35;6.57;;;15.30;99.90;;;;;;5054903;28;20140;-73
2021/09/25 08:08:45;;;;;;;8.45;7.65;;;15.40;99.90;;;;;;5055815;28;20021;-74
2021/09/25 08:11:10;;;;;;;9.52;7.32;;;15.60;99.90;;;;;;5056264;28;20029;-74
2021/09/25 08:13:36;;;;;;;9.02;7.18;;;15.70;99.90;;;;;;5055111;28;20025;-74
2021/09/25 08:16:02;;;;;;;9.35;7.85;;;15.80;99.90;;;;;;5055832;28;20029;-74
2021/09/25 08:18:28;;;;;;;7.32;6.63;;;15.80;99.90;;;;;;5056483;28;20033;-74
2021/09/25 08:20:54;;;;;;;7.57;6.78;;;15.90;99.90;;;;;;5057945;28;20029;-73
2021/09/25 08:23:21;;;;;;;8.48;6.88;;;16.00;99.90;;;;;;5055847;28;20028;-74
2021/09/25 08:25:46;;;;;;;7.57;6.60;;;15.90;99.90;;;;;;5055276;28;20477;-72
2021/09/25 08:28:12;;;;;;;7.78;6.97;;;16.10;99.90;;;;;;5077071;28;20032;-74
2021/09/25 08:30:38;;;;;;;7.88;7.18;;;16.30;99.90;;;;;;5063158;28;20033;-75
2021/09/25 08:33:03;;;;;;;9.43;6.97;;;16.30;99.90;;;;;;5058112;28;20025;-74
2021/09/25 08:35:30;;;;;;;7.75;7.05;;;16.50;99.90;;;;;;5058859;28;20048;-74
2021/09/25 08:37:56;;;;;;;7.90;7.20;;;16.50;99.90;;;;;;5056750;28;20025;-74
2021/09/25 08:40:22;;;;;;;7.25;6.55;;;16.60;99.90;;;;;;5056554;28;20497;-75
2021/09/25 08:42:50;;;;;;;7.78;6.95;;;16.70;99.90;;;;;;5060111;28;20087;-74
2021/09/25 08:45:16;;;;;;;9.85;6.72;;;16.80;99.90;;;;;;5062984;28;20071;-73
2021/09/25 08:47:42;;;;;;;8.95;6.90;;;16.90;99.90;;;;;;5065683;28;20021;-74
2021/09/25 08:50:09;;;;;;;7.25;6.22;;;16.90;99.90;;;;;;5063586;28;20113;-73
2021/09/25 08:52:35;;;;;;;8.75;6.60;;;17.10;99.90;;;;;;5062666;28;20469;-75
2021/09/25 08:55:01;;;;;;;7.15;6.50;;;17.30;99.90;;;;;;5057590;28;20025;-73
2021/09/25 08:57:27;;;;;;;9.70;6.70;;;17.40;99.90;;;;;;5057396;28;20033;-73
2021/09/25 08:59:53;;;;;;;5.85;5.35;;;17.60;99.90;;;;;;5057305;28;20190;-75
2021/09/25 09:02:21;;;;;;;5.93;5.40;;;17.70;99.90;;;;;;5056403;28;20028;-73
2021/09/25 09:04:53;;;;;;;7.32;5.68;;;17.70;99.90;;;;;;5076721;22;20049;-75
2021/09/25 09:07:28;;;;;;;8.45;6.38;;;17.90;99.90;;;;;;5053730;28;20029;-75
2021/09/25 09:09:54;;;;;;;6.68;5.85;;;18.00;99.90;;;;;;5054543;28;20032;-75
2021/09/25 09:12:23;;;;;;;6.68;6.00;;;18.10;99.90;;;;;;5053982;28;20096;-77
2021/09/25 09:14:50;;;;;;;6.93;6.22;;;18.10;99.90;;;;;;5053800;28;20020;-75
2021/09/25 09:17:23;;;;;;;9.38;6.07;;;18.20;99.90;;;;;;5053817;28;20020;-74
2021/09/25 09:19:49;;;;;;;5.95;5.38;;;18.40;99.90;;;;;;5052790;28;20032;-75
2021/09/25 09:22:20;;;;;;;5.97;5.40;;;18.40;99.90;;;;;;5054210;28;20033;-75
2021/09/25 09:24:49;;;;;;;;;;;18.50;99.90;;;;;;5053850;28;20033;-74
2021/09/25 09:27:24;;;;;;;6.72;6.13;;;18.50;99.90;;;;;;5052503;28;19954;-76
2021/09/25 09:30:05;;;;;;;7.65;5.82;;;18.70;99.90;;;;;;5053221;28;20017;-74
2021/09/25 09:32:33;;;;;;;7.00;6.40;;;18.80;99.90;;;;;;5053347;28;20050;-74
2021/09/25 09:35:08;;;;;;;8.73;5.95;;;18.90;99.90;;;;;;5053146;28;20473;-74
2021/09/25 09:37:33;;;;;;;7.28;6.57;;;19.10;99.90;;;;;;5052597;28;20032;-75
2021/09/25 09:40:03;;;;;;;5.82;5.32;;;19.30;99.90;;;;;;5053317;28;20021;-75
2021/09/25 09:42:54;;;;;;;5.80;5.20;;;19.20;99.90;;;;;;5053482;28;20501;-76
2021/09/25 09:45:28;;;;;;;6.47;5.30;;;19.40;99.90;;;;;;5053111;28;20690;-74
2021/09/25 09:47:57;;;;;;;6.13;5.43;;;19.30;99.90;;;;;;5052864;28;20485;-75
2021/09/25 09:50:23;;;;;;;6.05;5.45;;;19.50;99.90;;;;;;5053228;28;20365;-75
2021/09/25 09:52:49;;;;;;;7.13;5.40;;;19.70;99.90;;;;;;5053156;28;20099;-75
2021/09/25 09:55:24;;;;;;;6.05;5.10;;;19.80;99.90;;;;;;5053348;28;20053;-75
2021/09/25 09:58:19;;;;;;;7.38;5.32;;;20.00;99.90;;;;;;5051835;28;20094;-76
2021/09/25 10:00:44;;;;;;;7.75;5.82;;;20.10;99.90;;;;;;5043806;28;20037;-76
2021/09/25 10:03:11;;;;;;;7.03;5.43;;;20.30;99.90;;;;;;5053448;28;20104;-76
2021/09/25 10:05:38;;;;;;;6.45;5.13;;;20.40;99.90;;;;;;5053504;28;20105;-75
2021/09/25 10:08:04;;;;;;;7.45;5.00;;;20.50;99.90;;;;;;5053521;28;20067;-75
2021/09/25 10:10:30;;;;;;;6.97;5.00;;;20.60;99.90;;;;;;5053508;28;20029;-75
2021/09/25 10:12:57;;;;;;;7.00;4.55;;;20.80;99.90;;;;;;5053386;28;20040;-75
2021/09/25 10:15:23;;;;;;;6.22;4.35;;;20.80;99.90;;;;;;5052648;28;20074;-75
2021/09/25 10:17:49;;;;;;;7.32;4.30;;;21.00;99.90;;;;;;5050974;28;20392;-75
2021/09/25 10:20:15;;;;;;;5.38;4.80;;;21.10;99.90;;;;;;5052510;28;20029;-75
2021/09/25 10:22:45;;;;;;;5.05;4.35;;;21.20;99.90;;;;;;5052599;28;20392;-75
2021/09/25 10:25:12;;;;;;;4.97;3.97;;;21.30;99.90;;;;;;5052891;28;20083;-75
2021/09/25 10:27:40;;;;;;;6.95;4.53;;;21.30;99.90;;;;;;5064037;28;20036;-75
2021/09/25 10:30:08;;;;;;;4.88;4.43;;;21.20;99.90;;;;;;5061506;28;20092;-73
2021/09/25 10:32:44;;;;;;;5.95;4.55;;;21.50;99.90;;;;;;5054054;28;20017;-76
2021/09/25 10:35:12;;;;;;;8.05;4.70;;;21.60;99.90;;;;;;5053585;28;20108;-76
2021/09/25 10:37:50;;;;;;;4.80;4.25;;;21.60;99.90;;;;;;5052967;28;20017;-76
2021/09/25 10:40:37;;;;;;;4.93;4.35;;;21.60;99.90;;;;;;5052898;28;20029;-76
2021/09/25 10:43:19;;;;;;;4.43;4.03;;;21.60;99.90;;;;;;5053045;28;20064;-77
2021/09/25 10:45:47;;;;;;;6.90;4.30;;;21.70;99.90;;;;;;5053360;28;20071;-77
2021/09/25 10:48:22;;;;;;;5.88;3.95;;;21.90;99.90;;;;;;5053188;28;20025;-75
2021/09/25 10:50:50;;;;;;;4.35;3.95;;;22.00;99.90;;;;;;5055894;28;20104;-75
2021/09/25 10:53:18;;;;;;;5.00;4.32;;;22.10;99.90;;;;;;5056183;28;20078;-76
2021/09/25 10:55:46;;;;;;;5.22;4.43;;;22.10;99.90;;;;;;5056338;28;20418;-77
2021/09/25 10:58:20;;;;;;;4.13;3.67;;;22.20;99.90;;;;;;5056394;28;20052;-77
2021/09/25 11:00:58;;;;;;;4.20;3.80;;;22.20;99.90;;;;;;5055683;28;20055;-76
2021/09/25 11:06:14;;;;;;;4.10;3.50;;;22.40;99.90;;;;;;5057321;28;20464;-76
2021/09/25 11:08:56;;;;;;;4.00;3.63;;;22.30;99.90;;;;;;5056127;28;20078;-76
2021/09/25 11:11:38;;;;;;;3.92;3.30;;;22.50;99.90;;;;;;5054742;28;20082;-76
2021/09/25 11:14:08;;;;;;;4.22;3.92;;;22.50;99.90;;;;;;5056905;28;20033;-77
2021/09/25 11:16:43;;;;;;;7.20;3.63;;;22.60;99.90;;;;;;5055903;28;20025;-77
2021/09/25 11:19:10;;;;;;;4.07;3.65;;;22.70;99.90;;;;;;5055536;28;20029;-76
2021/09/25 11:21:35;;;;;;;3.85;3.30;;;22.80;99.90;;;;;;5055416;28;20056;-75
2021/09/25 11:24:01;;;;;;;5.72;5.32;;;22.90;99.90;;;;;;5056836;28;20032;-75
2021/09/25 11:26:27;;;;;;;4.18;3.80;;;22.70;99.90;;;;;;5055315;28;20029;-77
2021/09/25 11:28:52;;;;;;;5.57;3.35;;;22.80;99.90;;;;;;5056965;28;20476;-76
2021/09/25 11:31:18;;;;;;;4.38;3.65;;;23.00;99.90;;;;;;5056848;28;20029;-77
2021/09/25 11:33:43;;;;;;;3.65;3.25;;;23.10;99.90;;;;;;5057214;28;20029;-76
2021/09/25 11:36:11;;;;;;;3.80;3.40;;;23.20;99.90;;;;;;5058062;28;20108;-76
2021/09/25 11:38:44;;;;;;;3.92;3.15;;;23.30;99.90;;;;;;5057401;28;20103;-75
2021/09/25 11:41:17;;;;;;;4.57;3.70;;;23.30;99.90;;;;;;5057904;28;20108;-76
2021/09/25 11:43:55;;;;;;;4.80;3.90;;;23.40;99.90;;;;;;5056993;28;20112;-77
2021/09/25 11:46:22;;;;;;;4.00;3.60;;;23.40;99.90;;;;;;5057142;28;20036;-76
2021/09/25 11:48:47;;;;;;;3.45;3.15;;;23.40;99.90;;;;;;5056042;28;20017;-77
2021/09/25 11:51:13;;;;;;;4.93;3.70;;;23.60;99.90;;;;;;5056986;28;20553;-76
2021/09/25 11:53:44;;;;;;;3.97;3.60;;;23.70;99.90;;;;;;5055187;28;20021;-76
2021/09/25 11:56:09;;;;;;;3.58;3.28;;;23.70;99.90;;;;;;5057489;28;20013;-76
2021/09/25 11:58:35;;;;;;;3.33;3.00;;;23.90;99.90;;;;;;5056621;28;20075;-75
2021/09/25 12:01:01;;;;;;;3.83;3.53;;;23.90;99.90;;;;;;5057170;28;20040;-76
2021/09/25 12:03:31;;;;;;;3.78;3.33;;;23.90;99.90;;;;;;5058768;28;20112;-76
2021/09/25 12:05:59;;;;;;;8.68;3.90;;;24.00;99.90;;;;;;5060437;28;20029;-77
2021/09/25 12:08:28;;;;;;;3.30;3.00;;;23.90;99.90;;;;;;5059652;28;20027;-76
2021/09/25 12:10:53;;;;;;;3.38;3.08;;;24.00;99.90;;;;;;5062978;28;20099;-75
2021/09/25 12:13:22;;;;;;;3.75;3.45;;;24.10;99.90;;;;;;5070700;28;20017;-75
2021/09/25 12:15:50;;;;;;;3.72;3.22;;;24.00;99.90;;;;;;5076771;28;20020;-76
2021/09/25 12:18:42;;;;;;;3.67;3.33;;;24.10;99.80;;;;;;5069255;28;20033;-76
2021/09/25 12:21:19;;;;;;;3.42;2.78;;;24.10;99.90;;;;;;5059326;28;20025;-76
2021/09/25 12:23:51;;;;;;;3.03;2.65;;;24.20;99.90;;;;;;5056934;28;20396;-75
2021/09/25 12:26:20;;;;;;;3.28;2.97;;;24.30;99.70;;;;;;5055272;28;20032;-75
2021/09/25 12:28:56;;;;;;;3.75;3.13;;;24.40;99.30;;;;;;5057408;28;20020;-77
2021/09/25 12:31:32;;;;;;;7.70;3.25;;;24.40;99.20;;;;;;5056629;28;20066;-75
2021/09/25 12:34:08;;;;;;;6.20;2.97;;;24.40;99.00;;;;;;5057098;28;20039;-76
2021/09/25 12:36:39;;;;;;;3.45;3.17;;;24.40;98.50;;;;;;5057466;28;20047;-76
2021/09/25 12:39:06;;;;;;;2.95;2.75;;;24.30;99.10;;;;;;5056692;28;20432;-75
2021/09/25 12:41:33;;;;;;;4.93;3.42;;;24.20;99.10;;;;;;5056760;28;20021;-76